Seabourn Legend — C6FR6 — position and weather

sailwx.info

Track history (hours):
 
Tides and Currents Weather Stations Pressure Air Temp Water Temp Dewpoint Dewpoint Depression Visibility Wind Speed Wind Dir Waves Ship Positions

Seabourn Legend

Operator: Cunard Seabourn

Last reported at 2017-Sep-24 18:09 UTC. Time now 2017-Sep-25 10:07 UTC.
Position N 40°37' E 013°54'.

Length 135 m; draft 5.6 m.

Type: Passenger vessel. MMSI: 311085000.

Date/timePositionNaut miles runAvg speedWind from/ knotsBaromVisibWave heightAir tempDewpointWater temp
2017-Sep-24 18:09N 40°37' E 013°54'214.0
2017-Sep-24 18:00N 40°37' E 013°56'713.8
2017-Sep-24 17:29N 40°33' E 014°04'1213.2
2017-Sep-24 16:36N 40°31' E 014°19'214.0
2017-Sep-24 16:29N 40°31' E 014°21'913.7
2017-Sep-24 15:52N 40°34' E 014°32'41 3.1
2017-Sep-24 02:45N 39°57' E 014°54'2812.7
2017-Sep-24 00:32N 39°31' E 015°06'212.5
2017-Sep-24 00:24N 39°29' E 015°07'512.4
2017-Sep-24 00:00N 39°25' E 015°09'4612.5
2017-Sep-23 20:19N 38°41' E 015°30'412.8
2017-Sep-23 20:00N 38°38' E 015°32'  
2017-Sep-18 20:15N 44°16' E 014°25'612.3
2017-Sep-18 19:44N 44°20' E 014°19'312.3
2017-Sep-18 19:30N 44°22' E 014°16'612.2
2017-Sep-18 19:00N 44°27' E 014°10'612.1
2017-Sep-18 18:31N 44°31' E 014°04'612.1
2017-Sep-18 18:00N 44°35' E 013°58'612.2
2017-Sep-18 17:30N 44°39' E 013°52'612.1
2017-Sep-18 16:59N 44°44' E 013°46'612.3
2017-Sep-18 16:30N 44°48' E 013°40'612.1
2017-Sep-18 16:01N 44°53' E 013°36'612.1
2017-Sep-18 15:31N 44°59' E 013°35'611.0
2017-Sep-18 15:00N 45°05' E 013°36'1 2.4
2017-Sep-18 14:30N 45°05' E 013°38'0 0.0
2017-Sep-18 13:59N 45°05' E 013°38'0 0.0
2017-Sep-18 13:28N 45°05' E 013°38'0 0.0
2017-Sep-18 12:58N 45°05' E 013°38'0 0.0
2017-Sep-18 12:25N 45°05' E 013°38'0 0.0
2017-Sep-18 11:43N 45°05' E 013°38'0 0.0
2017-Sep-18 11:09N 45°05' E 013°38'0 0.0
2017-Sep-18 10:51N 45°05' E 013°38'0 0.0
2017-Sep-18 10:30N 45°05' E 013°38'0 0.0
2017-Sep-18 10:00N 45°05' E 013°38'0 0.0
2017-Sep-18 09:30N 45°05' E 013°38'0 0.0
2017-Sep-18 08:56N 45°05' E 013°38'0 0.0
2017-Sep-18 08:26N 45°05' E 013°38'0 0.0
2017-Sep-18 07:56N 45°05' E 013°38'0 0.0
2017-Sep-18 06:53N 45°05' E 013°38'0 0.0
2017-Sep-18 06:28N 45°05' E 013°38'0 0.0
2017-Sep-18 05:58N 45°05' E 013°38'0 0.0
2017-Sep-18 05:29N 45°05' E 013°38'0 0.5
2017-Sep-18 05:00N 45°05' E 013°38'3 6.6
2017-Sep-18 04:30N 45°04' E 013°34'3 6.7
2017-Sep-18 04:00N 45°03' E 013°29'3 6.6
2017-Sep-18 03:30N 45°01' E 013°25'3 6.7
2017-Sep-18 03:01N 44°60' E 013°21'3 6.7
2017-Sep-18 02:31N 44°58' E 013°17'3 6.7
2017-Sep-18 02:00N 44°57' E 013°12'3 6.5
2017-Sep-18 01:30N 44°56' E 013°08'3 6.3
2017-Sep-18 01:00N 44°55' E 013°04'3 5.4
2017-Sep-18 00:30N 44°55' E 013°00'3 6.0
2017-Sep-18 00:00N 44°56' E 012°56'3 6.3
2017-Sep-17 23:29N 44°56' E 012°51'3 5.9
2017-Sep-17 23:00N 44°59' E 012°49'3 6.3
2017-Sep-17 22:30N 45°01' E 012°47'3 6.4
2017-Sep-17 22:00N 45°04' E 012°45'3 6.3
2017-Sep-17 21:31N 45°07' E 012°43'3 6.2
2017-Sep-17 21:01N 45°08' E 012°39'3 6.3
2017-Sep-17 20:31N 45°10' E 012°35'3 6.3
2017-Sep-17 20:01N 45°12' E 012°31'3 6.1
2017-Sep-17 19:30N 45°15' E 012°30'3 6.4
2017-Sep-17 19:00N 45°18' E 012°30'3 6.8
2017-Sep-17 18:30N 45°21' E 012°30'2 5.0
2017-Sep-17 18:00N 45°24' E 012°29'4 8.8
2017-Sep-17 17:30N 45°26' E 012°24'3 5.5
2017-Sep-17 17:00N 45°26' E 012°20'1 1.4
2017-Sep-17 16:30N 45°26' E 012°19'0 0.0
2017-Sep-17 16:00N 45°26' E 012°19'0 0.0
2017-Sep-17 15:30N 45°26' E 012°19'0 0.0
2017-Sep-17 15:00N 45°26' E 012°19'0 0.0
2017-Sep-17 14:30N 45°26' E 012°19'0 0.0
2017-Sep-17 13:59N 45°26' E 012°19'0 0.0
2017-Sep-17 13:29N 45°26' E 012°19'0 0.0
2017-Sep-17 12:59N 45°26' E 012°19'0 0.0
2017-Sep-17 12:29N 45°26' E 012°19'0 0.0
2017-Sep-17 11:58N 45°26' E 012°19'0 0.0
2017-Sep-17 11:28N 45°26' E 012°19'0 0.0
2017-Sep-17 10:58N 45°26' E 012°19'0 0.0
2017-Sep-17 10:28N 45°26' E 012°19'0 0.0
2017-Sep-17 09:58N 45°26' E 012°19'0 0.0
2017-Sep-17 09:30N 45°26' E 012°19'0 0.0
2017-Sep-17 09:00N 45°26' E 012°19'0 0.0
2017-Sep-17 08:30N 45°26' E 012°19'0 0.0
2017-Sep-17 08:00N 45°26' E 012°19'0 0.0
2017-Sep-17 07:30N 45°26' E 012°19'0 0.0
2017-Sep-17 06:59N 45°26' E 012°19'0 0.0
2017-Sep-17 06:29N 45°26' E 012°19'0 0.0
2017-Sep-17 05:59N 45°26' E 012°19'0 0.0
2017-Sep-17 05:29N 45°26' E 012°19'0 0.0
2017-Sep-17 04:58N 45°26' E 012°19'0 0.4
2017-Sep-17 04:31N 45°26' E 012°19'2 4.7
2017-Sep-17 04:01N 45°26' E 012°23'4 7.8
2017-Sep-17 03:31N 45°24' E 012°28'4 7.2
2017-Sep-17 03:00N 45°22' E 012°32'3 6.9
2017-Sep-17 02:30N 45°19' E 012°32'3 6.5
2017-Sep-17 02:00N 45°16' E 012°34'3 6.4
2017-Sep-17 01:30N 45°14' E 012°37'3 6.4
2017-Sep-17 01:00N 45°12' E 012°41'3 6.4
2017-Sep-17 00:30N 45°10' E 012°45'3 6.4
2017-Sep-17 00:00N 45°08' E 012°48'3 6.5
2017-Sep-16 23:30N 45°05' E 012°50'3 6.2
2017-Sep-16 23:00N 45°02' E 012°52'3 6.5
2017-Sep-16 22:30N 44°59' E 012°53'3 5.7
2017-Sep-16 22:00N 44°57' E 012°57'3 6.4
2017-Sep-16 21:30N 44°57' E 013°01'3 6.4
2017-Sep-16 21:00N 44°56' E 013°05'3 6.0
2017-Sep-16 20:30N 44°56' E 013°10'3 5.6
2017-Sep-16 20:00N 44°57' E 013°13'3 6.1
2017-Sep-16 19:30N 44°58' E 013°17'3 6.3
2017-Sep-16 19:00N 44°60' E 013°21'3 6.4
2017-Sep-16 18:30N 45°01' E 013°25'3 6.3
2017-Sep-16 18:00N 45°03' E 013°29'4 7.8
2017-Sep-16 17:30N 45°04' E 013°34'3 5.7
2017-Sep-16 17:00N 45°05' E 013°38'0 0.0
2017-Sep-16 16:25N 45°05' E 013°38'0 0.0
2017-Sep-16 15:58N 45°05' E 013°38'0 0.0
2017-Sep-16 15:30N 45°05' E 013°38'0 0.0
2017-Sep-16 14:51N 45°05' E 013°38'0 0.0
2017-Sep-16 14:30N 45°05' E 013°38'0 0.0
2017-Sep-16 13:57N 45°05' E 013°38'0 0.0
2017-Sep-16 13:30N 45°05' E 013°38'0 0.0
2017-Sep-16 12:56N 45°05' E 013°38'0 0.0
2017-Sep-16 12:26N 45°05' E 013°38'0 0.0
2017-Sep-16 11:59N 45°05' E 013°38'0 0.0
2017-Sep-16 11:23N 45°05' E 013°38'0 0.0
2017-Sep-16 10:58N 45°05' E 013°38'0 0.0
2017-Sep-16 10:19N 45°05' E 013°38'0 0.0
2017-Sep-16 09:49N 45°05' E 013°38'0 0.0
2017-Sep-16 09:28N 45°05' E 013°38'0 0.0
2017-Sep-16 08:55N 45°05' E 013°38'0 0.0
2017-Sep-16 08:24N 45°05' E 013°38'0 0.0
2017-Sep-16 07:51N 45°05' E 013°38'0 0.0
2017-Sep-16 07:30N 45°05' E 013°38'0 0.0
2017-Sep-16 06:57N 45°05' E 013°38'0 0.0
2017-Sep-16 06:30N 45°05' E 013°38'0 0.6
2017-Sep-16 06:00N 45°05' E 013°38'3 6.8
2017-Sep-16 05:30N 45°02' E 013°35'4 8.9
2017-Sep-16 05:00N 44°58' E 013°36'510.0
2017-Sep-16 04:30N 44°53' E 013°38'611.6
2017-Sep-16 04:00N 44°48' E 013°41'611.8
2017-Sep-16 03:30N 44°43' E 013°47'611.7
2017-Sep-16 03:00N 44°39' E 013°52'611.7
2017-Sep-16 02:30N 44°35' E 013°58'611.4
2017-Sep-16 02:00N 44°31' E 014°04'611.4
2017-Sep-16 01:30N 44°27' E 014°10'190 6.4
2017-Sep-14 20:00N 42°36' E 017°42'   140 / 91014.3 23.515.2
Track history (hours):
 
Tides and Currents Weather Stations Pressure Air Temp Water Temp Dewpoint Dewpoint Depression Visibility Wind Speed Wind Dir Waves Ship Positions

Seabourn Legend

Operator: Cunard Seabourn

Last reported at 2017-Sep-24 18:09 UTC. Time now 2017-Sep-25 10:07 UTC.
Position N 40°37' E 013°54'.

Length 135 m; draft 5.6 m.

Type: Passenger vessel. MMSI: 311085000.

Date/timePositionNaut miles runAvg speedWind from/ knotsBaromVisibWave heightAir tempDewpointWater temp
2017-Sep-24 18:09N 40°37' E 013°54'214.0
2017-Sep-24 18:00N 40°37' E 013°56'713.8
2017-Sep-24 17:29N 40°33' E 014°04'1213.2
2017-Sep-24 16:36N 40°31' E 014°19'214.0
2017-Sep-24 16:29N 40°31' E 014°21'913.7
2017-Sep-24 15:52N 40°34' E 014°32'41 3.1
2017-Sep-24 02:45N 39°57' E 014°54'2812.7
2017-Sep-24 00:32N 39°31' E 015°06'212.5
2017-Sep-24 00:24N 39°29' E 015°07'512.4
2017-Sep-24 00:00N 39°25' E 015°09'4612.5
2017-Sep-23 20:19N 38°41' E 015°30'412.8
2017-Sep-23 20:00N 38°38' E 015°32'  
2017-Sep-18 20:15N 44°16' E 014°25'612.3
2017-Sep-18 19:44N 44°20' E 014°19'312.3
2017-Sep-18 19:30N 44°22' E 014°16'612.2
2017-Sep-18 19:00N 44°27' E 014°10'612.1
2017-Sep-18 18:31N 44°31' E 014°04'612.1
2017-Sep-18 18:00N 44°35' E 013°58'612.2
2017-Sep-18 17:30N 44°39' E 013°52'612.1
2017-Sep-18 16:59N 44°44' E 013°46'612.3
2017-Sep-18 16:30N 44°48' E 013°40'612.1
2017-Sep-18 16:01N 44°53' E 013°36'612.1
2017-Sep-18 15:31N 44°59' E 013°35'611.0
2017-Sep-18 15:00N 45°05' E 013°36'1 2.4
2017-Sep-18 14:30N 45°05' E 013°38'0 0.0
2017-Sep-18 13:59N 45°05' E 013°38'0 0.0
2017-Sep-18 13:28N 45°05' E 013°38'0 0.0
2017-Sep-18 12:58N 45°05' E 013°38'0 0.0
2017-Sep-18 12:25N 45°05' E 013°38'0 0.0
2017-Sep-18 11:43N 45°05' E 013°38'0 0.0
2017-Sep-18 11:09N 45°05' E 013°38'0 0.0
2017-Sep-18 10:51N 45°05' E 013°38'0 0.0
2017-Sep-18 10:30N 45°05' E 013°38'0 0.0
2017-Sep-18 10:00N 45°05' E 013°38'0 0.0
2017-Sep-18 09:30N 45°05' E 013°38'0 0.0
2017-Sep-18 08:56N 45°05' E 013°38'0 0.0
2017-Sep-18 08:26N 45°05' E 013°38'0 0.0
2017-Sep-18 07:56N 45°05' E 013°38'0 0.0
2017-Sep-18 06:53N 45°05' E 013°38'0 0.0
2017-Sep-18 06:28N 45°05' E 013°38'0 0.0
2017-Sep-18 05:58N 45°05' E 013°38'0 0.0
2017-Sep-18 05:29N 45°05' E 013°38'0 0.5
2017-Sep-18 05:00N 45°05' E 013°38'3 6.6
2017-Sep-18 04:30N 45°04' E 013°34'3 6.7
2017-Sep-18 04:00N 45°03' E 013°29'3 6.6
2017-Sep-18 03:30N 45°01' E 013°25'3 6.7
2017-Sep-18 03:01N 44°60' E 013°21'3 6.7
2017-Sep-18 02:31N 44°58' E 013°17'3 6.7
2017-Sep-18 02:00N 44°57' E 013°12'3 6.5
2017-Sep-18 01:30N 44°56' E 013°08'3 6.3
2017-Sep-18 01:00N 44°55' E 013°04'3 5.4
2017-Sep-18 00:30N 44°55' E 013°00'3 6.0
2017-Sep-18 00:00N 44°56' E 012°56'3 6.3
2017-Sep-17 23:29N 44°56' E 012°51'3 5.9
2017-Sep-17 23:00N 44°59' E 012°49'3 6.3
2017-Sep-17 22:30N 45°01' E 012°47'3 6.4
2017-Sep-17 22:00N 45°04' E 012°45'3 6.3
2017-Sep-17 21:31N 45°07' E 012°43'3 6.2
2017-Sep-17 21:01N 45°08' E 012°39'3 6.3
2017-Sep-17 20:31N 45°10' E 012°35'3 6.3
2017-Sep-17 20:01N 45°12' E 012°31'3 6.1
2017-Sep-17 19:30N 45°15' E 012°30'3 6.4
2017-Sep-17 19:00N 45°18' E 012°30'3 6.8
2017-Sep-17 18:30N 45°21' E 012°30'2 5.0
2017-Sep-17 18:00N 45°24' E 012°29'4 8.8
2017-Sep-17 17:30N 45°26' E 012°24'3 5.5
2017-Sep-17 17:00N 45°26' E 012°20'1 1.4
2017-Sep-17 16:30N 45°26' E 012°19'0 0.0
2017-Sep-17 16:00N 45°26' E 012°19'0 0.0
2017-Sep-17 15:30N 45°26' E 012°19'0 0.0
2017-Sep-17 15:00N 45°26' E 012°19'0 0.0
2017-Sep-17 14:30N 45°26' E 012°19'0 0.0
2017-Sep-17 13:59N 45°26' E 012°19'0 0.0
2017-Sep-17 13:29N 45°26' E 012°19'0 0.0
2017-Sep-17 12:59N 45°26' E 012°19'0 0.0
2017-Sep-17 12:29N 45°26' E 012°19'0 0.0
2017-Sep-17 11:58N 45°26' E 012°19'0 0.0
2017-Sep-17 11:28N 45°26' E 012°19'0 0.0
2017-Sep-17 10:58N 45°26' E 012°19'0 0.0
2017-Sep-17 10:28N 45°26' E 012°19'0 0.0
2017-Sep-17 09:58N 45°26' E 012°19'0 0.0
2017-Sep-17 09:30N 45°26' E 012°19'0 0.0
2017-Sep-17 09:00N 45°26' E 012°19'0 0.0
2017-Sep-17 08:30N 45°26' E 012°19'0 0.0
2017-Sep-17 08:00N 45°26' E 012°19'0 0.0
2017-Sep-17 07:30N 45°26' E 012°19'0 0.0
2017-Sep-17 06:59N 45°26' E 012°19'0 0.0
2017-Sep-17 06:29N 45°26' E 012°19'0 0.0
2017-Sep-17 05:59N 45°26' E 012°19'0 0.0
2017-Sep-17 05:29N 45°26' E 012°19'0 0.0
2017-Sep-17 04:58N 45°26' E 012°19'0 0.4
2017-Sep-17 04:31N 45°26' E 012°19'2 4.7
2017-Sep-17 04:01N 45°26' E 012°23'4 7.8
2017-Sep-17 03:31N 45°24' E 012°28'4 7.2
2017-Sep-17 03:00N 45°22' E 012°32'3 6.9
2017-Sep-17 02:30N 45°19' E 012°32'3 6.5
2017-Sep-17 02:00N 45°16' E 012°34'3 6.4
2017-Sep-17 01:30N 45°14' E 012°37'3 6.4
2017-Sep-17 01:00N 45°12' E 012°41'3 6.4
2017-Sep-17 00:30N 45°10' E 012°45'3 6.4
2017-Sep-17 00:00N 45°08' E 012°48'3 6.5
2017-Sep-16 23:30N 45°05' E 012°50'3 6.2
2017-Sep-16 23:00N 45°02' E 012°52'3 6.5
2017-Sep-16 22:30N 44°59' E 012°53'3 5.7
2017-Sep-16 22:00N 44°57' E 012°57'3 6.4
2017-Sep-16 21:30N 44°57' E 013°01'3 6.4
2017-Sep-16 21:00N 44°56' E 013°05'3 6.0
2017-Sep-16 20:30N 44°56' E 013°10'3 5.6
2017-Sep-16 20:00N 44°57' E 013°13'3 6.1
2017-Sep-16 19:30N 44°58' E 013°17'3 6.3
2017-Sep-16 19:00N 44°60' E 013°21'3 6.4
2017-Sep-16 18:30N 45°01' E 013°25'3 6.3
2017-Sep-16 18:00N 45°03' E 013°29'4 7.8
2017-Sep-16 17:30N 45°04' E 013°34'3 5.7
2017-Sep-16 17:00N 45°05' E 013°38'0 0.0
2017-Sep-16 16:25N 45°05' E 013°38'0 0.0
2017-Sep-16 15:58N 45°05' E 013°38'0 0.0
2017-Sep-16 15:30N 45°05' E 013°38'0 0.0
2017-Sep-16 14:51N 45°05' E 013°38'0 0.0
2017-Sep-16 14:30N 45°05' E 013°38'0 0.0
2017-Sep-16 13:57N 45°05' E 013°38'0 0.0
2017-Sep-16 13:30N 45°05' E 013°38'0 0.0
2017-Sep-16 12:56N 45°05' E 013°38'0 0.0
2017-Sep-16 12:26N 45°05' E 013°38'0 0.0
2017-Sep-16 11:59N 45°05' E 013°38'0 0.0
2017-Sep-16 11:23N 45°05' E 013°38'0 0.0
2017-Sep-16 10:58N 45°05' E 013°38'0 0.0
2017-Sep-16 10:19N 45°05' E 013°38'0 0.0
2017-Sep-16 09:49N 45°05' E 013°38'0 0.0
2017-Sep-16 09:28N 45°05' E 013°38'0 0.0
2017-Sep-16 08:55N 45°05' E 013°38'0 0.0
2017-Sep-16 08:24N 45°05' E 013°38'0 0.0
2017-Sep-16 07:51N 45°05' E 013°38'0 0.0
2017-Sep-16 07:30N 45°05' E 013°38'0 0.0
2017-Sep-16 06:57N 45°05' E 013°38'0 0.0
2017-Sep-16 06:30N 45°05' E 013°38'0 0.6
2017-Sep-16 06:00N 45°05' E 013°38'3 6.8
2017-Sep-16 05:30N 45°02' E 013°35'4 8.9
2017-Sep-16 05:00N 44°58' E 013°36'510.0
2017-Sep-16 04:30N 44°53' E 013°38'611.6
2017-Sep-16 04:00N 44°48' E 013°41'611.8
2017-Sep-16 03:30N 44°43' E 013°47'611.7
2017-Sep-16 03:00N 44°39' E 013°52'611.7
2017-Sep-16 02:30N 44°35' E 013°58'611.4
2017-Sep-16 02:00N 44°31' E 014°04'611.4
2017-Sep-16 01:30N 44°27' E 014°10'190 6.4
2017-Sep-14 20:00N 42°36' E 017°42'   140 / 91014.3 23.515.2

Dump ship's entire track history